createdAt,value
2022-09-12T00:01:42.437Z,99.90
2022-09-12T00:05:45.211Z,99.90
2022-09-12T00:09:46.308Z,99.90
2022-09-12T00:13:47.798Z,99.90
2022-09-12T00:17:48.984Z,99.90
2022-09-12T00:21:50.351Z,99.90
2022-09-12T00:25:51.435Z,99.90
2022-09-12T00:29:52.772Z,99.90
2022-09-12T00:33:56.669Z,99.90
2022-09-12T00:37:57.835Z,99.90
2022-09-12T00:41:59.021Z,99.90
2022-09-12T00:46:03.976Z,99.90
2022-09-12T00:50:08.976Z,99.90
2022-09-12T00:54:12.958Z,99.90
2022-09-12T00:58:23.809Z,99.90
2022-09-12T01:02:26.043Z,99.90
2022-09-12T01:06:31.128Z,99.90
2022-09-12T01:10:34.734Z,99.90
2022-09-12T01:14:36.598Z,99.90
2022-09-12T01:19:15.480Z,99.90
2022-09-12T01:23:43.152Z,99.90
2022-09-12T01:27:56.427Z,99.90
2022-09-12T01:32:01.434Z,99.90
2022-09-12T01:36:23.547Z,99.90
2022-09-12T01:40:31.442Z,99.90
2022-09-12T01:44:56.454Z,99.90
2022-09-12T01:49:01.458Z,99.90
2022-09-12T01:53:18.713Z,99.90
2022-09-12T01:57:38.493Z,99.90
2022-09-12T02:01:54.091Z,99.90
2022-09-12T02:06:04.819Z,99.90
2022-09-12T02:10:18.424Z,99.90
2022-09-12T02:14:36.437Z,99.90
2022-09-12T02:18:40.665Z,99.90
2022-09-12T02:22:44.160Z,99.90
2022-09-12T02:26:49.067Z,99.90
2022-09-12T02:30:57.062Z,99.90
2022-09-12T02:35:06.712Z,99.90
2022-09-12T02:39:09.088Z,99.90
2022-09-12T02:43:10.491Z,99.90
2022-09-12T02:47:33.542Z,99.90
2022-09-12T02:51:34.825Z,99.90
2022-09-12T02:55:37.917Z,99.90
2022-09-12T02:59:39.089Z,99.90
2022-09-12T03:04:04.060Z,99.90
2022-09-12T03:08:09.064Z,99.90
2022-09-12T03:12:38.350Z,99.90
2022-09-12T03:16:49.464Z,99.90
2022-09-12T03:21:00.544Z,99.90
2022-09-12T03:25:05.603Z,99.90
2022-09-12T03:29:07.825Z,99.90
2022-09-12T03:33:18.316Z,99.90
2022-09-12T03:37:19.490Z,99.90
2022-09-12T03:41:21.013Z,99.90
2022-09-12T03:45:22.211Z,99.90
2022-09-12T03:49:23.430Z,99.90
2022-09-12T03:53:24.642Z,99.90
2022-09-12T03:57:25.924Z,99.90
2022-09-12T04:01:27.184Z,99.90
2022-09-12T04:05:28.527Z,99.90
2022-09-12T04:09:29.713Z,99.90
2022-09-12T04:13:30.793Z,99.90
2022-09-12T04:17:32.806Z,99.90
2022-09-12T04:21:34.309Z,99.90
2022-09-12T04:25:35.475Z,99.90
2022-09-12T04:29:36.564Z,99.90
2022-09-12T04:33:37.853Z,99.90
2022-09-12T04:37:39.144Z,99.90
2022-09-12T04:41:43.091Z,99.90
2022-09-12T04:45:44.340Z,99.90
2022-09-12T04:49:45.532Z,99.90
2022-09-12T04:53:52.107Z,99.90
2022-09-12T04:57:53.287Z,99.90
2022-09-12T05:01:54.516Z,99.90
2022-09-12T05:05:56.576Z,99.90
2022-09-12T05:09:57.977Z,99.90
2022-09-12T05:13:59.767Z,99.90
2022-09-12T05:18:00.998Z,99.90
2022-09-12T05:22:02.282Z,99.90
2022-09-12T05:26:05.010Z,99.90
2022-09-12T05:30:07.594Z,99.90
2022-09-12T05:34:09.465Z,99.90
2022-09-12T05:38:10.663Z,99.90
2022-09-12T05:42:11.839Z,99.90
2022-09-12T05:46:15.363Z,99.90
2022-09-12T05:50:16.566Z,99.90
2022-09-12T05:54:19.894Z,99.90
2022-09-12T05:58:21.853Z,99.90
2022-09-12T06:02:23.084Z,99.90
2022-09-12T06:06:24.733Z,99.90
2022-09-12T06:10:26.256Z,99.90
2022-09-12T06:14:27.936Z,99.90
2022-09-12T06:18:29.056Z,99.90
2022-09-12T06:22:31.074Z,99.90
2022-09-12T06:26:32.584Z,99.90
2022-09-12T06:30:33.854Z,99.90
2022-09-12T06:34:35.871Z,99.90
2022-09-12T06:38:37.667Z,99.90
2022-09-12T06:42:38.865Z,99.90
2022-09-12T06:46:40.056Z,99.90
2022-09-12T06:50:41.466Z,99.90
2022-09-12T06:54:42.647Z,99.90
2022-09-12T06:58:44.364Z,99.90
2022-09-12T07:02:45.550Z,99.90
2022-09-12T07:06:47.420Z,99.90
2022-09-12T07:10:48.901Z,99.90
2022-09-12T07:14:50.072Z,99.90
2022-09-12T07:18:53.106Z,99.90
2022-09-12T07:22:54.378Z,99.90
2022-09-12T07:26:55.625Z,99.90
2022-09-12T07:30:58.034Z,99.90
2022-09-12T07:34:59.308Z,99.90
2022-09-12T07:39:00.962Z,99.90
2022-09-12T07:43:02.107Z,99.90
2022-09-12T07:47:03.352Z,99.90
2022-09-12T07:51:07.253Z,99.90
2022-09-12T07:55:08.946Z,99.90
2022-09-12T07:59:10.136Z,99.90
2022-09-12T08:03:11.218Z,99.90
2022-09-12T08:07:12.499Z,99.90
2022-09-12T08:11:16.609Z,99.90
2022-09-12T08:15:19.559Z,99.90
2022-09-12T08:19:22.104Z,99.90
2022-09-12T08:23:24.257Z,99.90
2022-09-12T08:27:25.365Z,99.90
2022-09-12T08:31:27.759Z,99.90
2022-09-12T08:35:29.346Z,99.90
2022-09-12T08:39:32.220Z,99.90
2022-09-12T08:43:37.217Z,99.90
2022-09-12T08:47:41.032Z,99.90
2022-09-12T08:51:42.813Z,99.90
2022-09-12T08:55:46.201Z,99.90
2022-09-12T08:59:48.842Z,99.90
2022-09-12T09:04:02.968Z,99.90
2022-09-12T09:08:29.215Z,99.90
2022-09-12T09:12:53.921Z,99.90
2022-09-12T09:16:56.507Z,99.90
2022-09-12T09:21:19.401Z,99.90
2022-09-12T09:25:27.117Z,99.90
2022-09-12T09:29:35.256Z,99.90
2022-09-12T09:33:37.028Z,99.90
2022-09-12T09:37:42.125Z,99.90
2022-09-12T09:41:52.906Z,99.90
2022-09-12T09:45:56.131Z,99.90
2022-09-12T09:49:57.288Z,99.90
2022-09-12T09:54:05.040Z,99.90
2022-09-12T09:58:06.428Z,99.90
2022-09-12T10:02:27.151Z,99.90
2022-09-12T10:06:31.756Z,99.90
2022-09-12T10:10:33.141Z,97.90
2022-09-12T10:14:40.115Z,99.90
2022-09-12T10:18:41.915Z,99.90
2022-09-12T10:22:46.401Z,99.90
2022-09-12T10:26:55.891Z,97.20
2022-09-12T10:30:55.551Z,98.00
2022-09-12T10:35:00.679Z,98.60
2022-09-12T10:39:02.526Z,97.20
2022-09-12T10:43:23.888Z,98.00
2022-09-12T10:47:28.884Z,92.90
2022-09-12T10:51:30.288Z,95.10
2022-09-12T10:55:34.284Z,95.10
2022-09-12T10:59:39.562Z,92.30
2022-09-12T11:03:47.677Z,89.70
2022-09-12T11:07:58.454Z,83.50
2022-09-12T11:12:09.751Z,78.60
2022-09-12T11:16:43.066Z,89.30
2022-09-12T11:21:19.964Z,81.90
2022-09-12T11:25:41.947Z,82.90
2022-09-12T11:29:49.404Z,81.90
2022-09-12T11:33:56.088Z,76.80
2022-09-12T11:38:14.420Z,80.50
2022-09-12T11:42:25.160Z,79.50
2022-09-12T11:46:38.994Z,77.60
2022-09-12T11:50:41.201Z,81.50
2022-09-12T11:55:01.496Z,73.20
2022-09-12T11:59:06.473Z,75.00
2022-09-12T12:03:11.980Z,70.50
2022-09-12T12:07:15.621Z,72.20
2022-09-12T12:11:26.738Z,80.60
2022-09-12T12:15:30.404Z,76.60
2022-09-12T12:19:37.411Z,72.30
2022-09-12T12:23:39.012Z,70.60
2022-09-12T12:28:01.250Z,73.90
2022-09-12T12:32:07.189Z,74.50
2022-09-12T12:36:10.198Z,78.00
2022-09-12T12:40:24.697Z,75.20
2022-09-12T12:44:48.470Z,72.80
2022-09-12T12:49:21.040Z,71.20
2022-09-12T12:53:27.092Z,72.30
2022-09-12T12:57:41.426Z,67.70
2022-09-12T13:01:55.152Z,72.50
2022-09-12T13:06:01.341Z,66.70
2022-09-12T13:10:05.184Z,69.00
2022-09-12T13:14:26.845Z,68.00
2022-09-12T13:18:44.085Z,72.10
2022-09-12T13:22:47.767Z,72.00
2022-09-12T13:26:49.071Z,71.20
2022-09-12T13:31:23.888Z,68.30
2022-09-12T13:35:57.158Z,71.20
2022-09-12T13:40:24.574Z,71.10
2022-09-12T13:44:27.153Z,70.50
2022-09-12T13:48:28.625Z,71.20
2022-09-12T13:52:32.841Z,70.80
2022-09-12T13:56:37.866Z,74.50
2022-09-12T14:00:39.176Z,69.70
2022-09-12T14:04:59.051Z,71.00
2022-09-12T14:09:00.928Z,72.40
2022-09-12T14:13:15.102Z,71.90
2022-09-12T14:17:26.806Z,69.70
2022-09-12T14:21:36.023Z,68.60
2022-09-12T14:25:40.836Z,66.40
2022-09-12T14:29:43.436Z,67.40
2022-09-12T14:33:53.489Z,66.90
2022-09-12T14:37:55.244Z,65.90
2022-09-12T14:42:21.381Z,66.40
2022-09-12T14:46:26.438Z,68.20
2022-09-12T14:50:30.788Z,67.60
2022-09-12T14:54:36.557Z,70.20
2022-09-12T14:58:39.849Z,69.40
2022-09-12T15:02:44.046Z,71.30
2022-09-12T15:06:45.144Z,69.10
2022-09-12T15:10:46.822Z,70.40
2022-09-12T15:14:47.920Z,71.60
2022-09-12T15:18:49.211Z,72.30
2022-09-12T15:22:51.793Z,72.90
2022-09-12T15:26:52.982Z,71.50
2022-09-12T15:30:55.846Z,71.00
2022-09-12T15:34:57.147Z,73.50
2022-09-12T15:38:58.636Z,74.30
2022-09-12T15:43:00.101Z,75.00
2022-09-12T15:47:01.499Z,74.00
2022-09-12T15:51:04.196Z,78.10
2022-09-12T15:55:08.411Z,76.90
2022-09-12T15:59:09.665Z,80.60
2022-09-12T16:03:21.143Z,77.60
2022-09-12T16:07:22.442Z,76.70
2022-09-12T16:11:25.445Z,73.70
2022-09-12T16:15:26.627Z,77.60
2022-09-12T16:19:27.816Z,79.00
2022-09-12T16:23:28.908Z,81.00
2022-09-12T16:27:30.688Z,81.80
2022-09-12T16:31:32.053Z,83.60
2022-09-12T16:35:33.246Z,85.40
2022-09-12T16:39:35.881Z,89.00
2022-09-12T16:43:37.477Z,89.80
2022-09-12T16:47:39.086Z,88.30
2022-09-12T16:51:42.155Z,87.50
2022-09-12T16:55:48.918Z,89.50
2022-09-12T16:59:50.117Z,91.40
2022-09-12T17:03:56.029Z,92.00
2022-09-12T17:07:57.198Z,94.20
2022-09-12T17:11:58.327Z,93.90
2022-09-12T17:15:59.878Z,95.90
2022-09-12T17:20:01.198Z,95.40
2022-09-12T17:24:03.329Z,95.90
2022-09-12T17:28:05.017Z,95.80
2022-09-12T17:32:06.213Z,96.30
2022-09-12T17:36:10.533Z,99.30
2022-09-12T17:40:11.766Z,99.90
2022-09-12T17:44:14.300Z,99.90
2022-09-12T17:48:15.483Z,99.90
2022-09-12T17:52:16.777Z,99.90
2022-09-12T17:56:17.949Z,99.90
2022-09-12T18:00:21.316Z,99.90
2022-09-12T18:04:22.626Z,99.90
2022-09-12T18:08:24.324Z,99.90
2022-09-12T18:12:25.524Z,99.90
2022-09-12T18:16:30.784Z,99.90
2022-09-12T18:20:31.971Z,99.90
2022-09-12T18:24:33.262Z,99.90
2022-09-12T18:28:36.633Z,99.90
2022-09-12T18:32:38.025Z,99.90
2022-09-12T18:36:40.627Z,99.90
2022-09-12T18:40:41.819Z,99.90
2022-09-12T18:44:43.119Z,99.90
2022-09-12T18:48:45.241Z,99.90
2022-09-12T18:52:46.415Z,99.90
2022-09-12T18:56:47.499Z,99.90
2022-09-12T19:00:49.019Z,99.90
2022-09-12T19:04:50.987Z,99.90
2022-09-12T19:08:53.994Z,99.90
2022-09-12T19:12:55.324Z,99.90
2022-09-12T19:16:56.570Z,99.90
2022-09-12T19:20:57.742Z,99.90
2022-09-12T19:24:58.947Z,99.90
2022-09-12T19:29:02.203Z,99.90
2022-09-12T19:33:04.785Z,99.90
2022-09-12T19:37:07.344Z,99.90
2022-09-12T19:41:14.668Z,99.90
2022-09-12T19:45:18.110Z,99.90
2022-09-12T19:49:19.373Z,99.90
2022-09-12T19:53:20.983Z,99.90
2022-09-12T19:57:22.209Z,99.90
2022-09-12T20:01:27.322Z,99.90
2022-09-12T20:05:28.792Z,99.90
2022-09-12T20:09:30.046Z,99.90
2022-09-12T20:13:31.247Z,99.90
2022-09-12T20:17:32.475Z,99.90
2022-09-12T20:21:35.290Z,99.90
2022-09-12T20:25:37.094Z,99.90
2022-09-12T20:29:38.327Z,99.90
2022-09-12T20:33:39.846Z,99.90
2022-09-12T20:37:41.184Z,99.90
2022-09-12T20:41:42.565Z,99.90
2022-09-12T20:45:43.776Z,99.90
2022-09-12T20:49:45.019Z,99.90
2022-09-12T20:53:47.157Z,99.90
2022-09-12T20:57:50.424Z,99.90
2022-09-12T21:01:51.687Z,99.90
2022-09-12T21:05:53.458Z,99.90
2022-09-12T21:09:54.668Z,99.90
2022-09-12T21:13:56.403Z,99.90
2022-09-12T21:17:57.577Z,99.90
2022-09-12T21:21:58.759Z,99.90
2022-09-12T21:26:00.952Z,99.90
2022-09-12T21:30:05.293Z,99.90
2022-09-12T21:34:06.481Z,99.90
2022-09-12T21:38:07.663Z,99.90
2022-09-12T21:42:09.370Z,99.90
2022-09-12T21:46:11.005Z,99.90
2022-09-12T21:50:12.785Z,99.90
2022-09-12T21:54:14.319Z,99.90
2022-09-12T21:58:15.703Z,99.90
2022-09-12T22:02:16.998Z,99.90
2022-09-12T22:06:22.279Z,99.90
2022-09-12T22:10:21.276Z,99.90
2022-09-12T22:14:23.033Z,99.90
2022-09-12T22:18:24.191Z,99.90
2022-09-12T22:22:27.298Z,99.90
2022-09-12T22:26:31.485Z,99.90
2022-09-12T22:30:32.980Z,99.90
2022-09-12T22:34:34.587Z,99.90
2022-09-12T22:38:36.064Z,99.90
2022-09-12T22:42:38.060Z,99.90
2022-09-12T22:46:39.625Z,99.90
2022-09-12T22:50:40.832Z,99.90
2022-09-12T22:54:42.851Z,99.90
2022-09-12T22:58:44.054Z,99.90
2022-09-12T23:02:46.210Z,99.90
2022-09-12T23:06:48.252Z,99.90
2022-09-12T23:10:49.839Z,99.90
2022-09-12T23:14:51.008Z,99.90
2022-09-12T23:18:52.092Z,99.90
2022-09-12T23:22:54.109Z,99.90
2022-09-12T23:26:55.290Z,99.90
2022-09-12T23:30:56.800Z,99.90
2022-09-12T23:34:58.380Z,99.90
2022-09-12T23:38:59.564Z,99.90
2022-09-12T23:43:00.858Z,99.90
2022-09-12T23:47:02.597Z,99.90
2022-09-12T23:51:03.988Z,99.90
2022-09-12T23:55:06.631Z,99.90
2022-09-12T23:59:07.920Z,99.90
